East Newport, Pennsylvania
Current Conditions -  °F | °C
As of 10:56 PM on Wednesday 22 Oct 2014 (Local Time) from KCXY Reporting Station
Overcast Overcast  
Wind Chill: 53°   Ceiling: 2600
Heat Index: 53°   Visibility: 10mi
Dew Point: 43°   Wind: 16mph
Humidity: 69%   Direction: 330°NNW
Pressure: 29.96"   Gusts: 24mph
Location:  40.4932°N, 77.217°W
Report Text: KCXY 230256Z AUTO 33014G21KT 10SM OVC026 12/06 A2996 RMK AO2 SLP145 T01170061 58007
Loading
Personal Weather Stations






























Interactive Weather Map
Tropical Storm Tracking
New forecast layout! Learn more

10-Day Weather Forecast

Advertisements
Track Severe Weather on mobile